sensor_id;sensor_type;location;lat;lon;timestamp;temperature;humidity
59307;DHT22;47983;53.016;-2.260;2024-03-08T00:00:14;4.90;99.90
59307;DHT22;47983;53.016;-2.260;2024-03-08T00:02:47;4.90;99.90
59307;DHT22;47983;53.016;-2.260;2024-03-08T00:05:19;4.80;99.90
59307;DHT22;47983;53.016;-2.260;2024-03-08T00:07:47;4.80;99.90
59307;DHT22;47983;53.016;-2.260;2024-03-08T00:10:15;4.70;99.90
59307;DHT22;47983;53.016;-2.260;2024-03-08T00:12:44;4.70;99.90
59307;DHT22;47983;53.016;-2.260;2024-03-08T00:15:15;4.70;99.90
59307;DHT22;47983;53.016;-2.260;2024-03-08T00:17:46;4.70;99.90
59307;DHT22;47983;53.016;-2.260;2024-03-08T00:20:16;4.70;99.90
59307;DHT22;47983;53.016;-2.260;2024-03-08T00:22:46;4.70;99.90
59307;DHT22;47983;53.016;-2.260;2024-03-08T00:25:15;4.70;99.90
59307;DHT22;47983;53.016;-2.260;2024-03-08T00:27:43;4.70;99.90
59307;DHT22;47983;53.016;-2.260;2024-03-08T00:30:13;4.70;99.90
59307;DHT22;47983;53.016;-2.260;2024-03-08T00:32:43;4.60;99.90
59307;DHT22;47983;53.016;-2.260;2024-03-08T00:35:14;4.60;99.90
59307;DHT22;47983;53.016;-2.260;2024-03-08T00:37:42;4.60;99.90
59307;DHT22;47983;53.016;-2.260;2024-03-08T00:40:12;4.60;99.90
59307;DHT22;47983;53.016;-2.260;2024-03-08T00:42:40;4.60;99.90
59307;DHT22;47983;53.016;-2.260;2024-03-08T00:45:14;4.60;99.90
59307;DHT22;47983;53.016;-2.260;2024-03-08T00:47:42;4.60;99.90
59307;DHT22;47983;53.016;-2.260;2024-03-08T00:50:12;4.60;99.90
59307;DHT22;47983;53.016;-2.260;2024-03-08T00:52:43;4.50;99.90
59307;DHT22;47983;53.016;-2.260;2024-03-08T00:55:15;4.50;99.90
59307;DHT22;47983;53.016;-2.260;2024-03-08T00:57:44;4.50;99.90
59307;DHT22;47983;53.016;-2.260;2024-03-08T01:00:19;4.40;99.90
59307;DHT22;47983;53.016;-2.260;2024-03-08T01:02:48;4.40;99.90
59307;DHT22;47983;53.016;-2.260;2024-03-08T01:05:16;4.40;99.90
59307;DHT22;47983;53.016;-2.260;2024-03-08T01:07:45;4.30;99.90
59307;DHT22;47983;53.016;-2.260;2024-03-08T01:10:14;4.40;99.90
59307;DHT22;47983;53.016;-2.260;2024-03-08T01:12:42;4.40;99.90
59307;DHT22;47983;53.016;-2.260;2024-03-08T01:15:14;4.40;99.90
59307;DHT22;47983;53.016;-2.260;2024-03-08T01:17:42;4.40;99.90
59307;DHT22;47983;53.016;-2.260;2024-03-08T01:20:12;4.30;99.90
59307;DHT22;47983;53.016;-2.260;2024-03-08T01:22:41;4.30;99.90
59307;DHT22;47983;53.016;-2.260;2024-03-08T01:25:10;4.30;99.90
59307;DHT22;47983;53.016;-2.260;2024-03-08T01:27:38;4.30;99.90
59307;DHT22;47983;53.016;-2.260;2024-03-08T01:30:06;4.30;99.90
59307;DHT22;47983;53.016;-2.260;2024-03-08T01:32:38;4.30;99.90
59307;DHT22;47983;53.016;-2.260;2024-03-08T01:35:06;4.30;99.90
59307;DHT22;47983;53.016;-2.260;2024-03-08T01:37:40;4.20;99.90
59307;DHT22;47983;53.016;-2.260;2024-03-08T01:40:12;4.30;99.90
59307;DHT22;47983;53.016;-2.260;2024-03-08T01:42:44;4.30;99.90
59307;DHT22;47983;53.016;-2.260;2024-03-08T01:45:12;4.30;99.90
59307;DHT22;47983;53.016;-2.260;2024-03-08T01:47:41;4.30;99.90
59307;DHT22;47983;53.016;-2.260;2024-03-08T01:50:12;4.30;99.90
59307;DHT22;47983;53.016;-2.260;2024-03-08T01:52:41;4.30;99.90
59307;DHT22;47983;53.016;-2.260;2024-03-08T01:55:13;4.30;99.90
59307;DHT22;47983;53.016;-2.260;2024-03-08T01:57:42;4.30;99.90
59307;DHT22;47983;53.016;-2.260;2024-03-08T02:00:12;4.30;99.90
59307;DHT22;47983;53.016;-2.260;2024-03-08T02:02:40;4.30;99.90
59307;DHT22;47983;53.016;-2.260;2024-03-08T02:05:10;4.30;99.90
59307;DHT22;47983;53.016;-2.260;2024-03-08T02:07:42;4.40;99.90
59307;DHT22;47983;53.016;-2.260;2024-03-08T02:10:12;4.40;99.90
59307;DHT22;47983;53.016;-2.260;2024-03-08T02:12:42;4.40;99.90
59307;DHT22;47983;53.016;-2.260;2024-03-08T02:15:10;4.40;99.90
59307;DHT22;47983;53.016;-2.260;2024-03-08T02:17:42;4.50;99.90
59307;DHT22;47983;53.016;-2.260;2024-03-08T02:20:11;4.50;99.90
59307;DHT22;47983;53.016;-2.260;2024-03-08T02:22:44;4.50;99.90
59307;DHT22;47983;53.016;-2.260;2024-03-08T02:25:12;4.60;99.90
59307;DHT22;47983;53.016;-2.260;2024-03-08T02:27:40;4.60;99.90
59307;DHT22;47983;53.016;-2.260;2024-03-08T02:30:13;4.60;99.90
59307;DHT22;47983;53.016;-2.260;2024-03-08T02:32:42;4.60;99.90
59307;DHT22;47983;53.016;-2.260;2024-03-08T02:35:09;4.70;99.90
59307;DHT22;47983;53.016;-2.260;2024-03-08T02:37:38;4.70;99.90
59307;DHT22;47983;53.016;-2.260;2024-03-08T02:40:07;4.70;99.90
59307;DHT22;47983;53.016;-2.260;2024-03-08T02:42:43;4.80;99.90
59307;DHT22;47983;53.016;-2.260;2024-03-08T02:45:13;4.80;99.90
59307;DHT22;47983;53.016;-2.260;2024-03-08T02:47:44;4.80;99.90
59307;DHT22;47983;53.016;-2.260;2024-03-08T02:50:12;4.90;99.90
59307;DHT22;47983;53.016;-2.260;2024-03-08T02:52:43;4.90;99.90
59307;DHT22;47983;53.016;-2.260;2024-03-08T02:55:14;5.00;99.90
59307;DHT22;47983;53.016;-2.260;2024-03-08T02:57:43;5.00;99.90
59307;DHT22;47983;53.016;-2.260;2024-03-08T03:00:13;5.10;99.90
59307;DHT22;47983;53.016;-2.260;2024-03-08T03:02:41;5.10;99.90
59307;DHT22;47983;53.016;-2.260;2024-03-08T03:05:10;5.10;99.90
59307;DHT22;47983;53.016;-2.260;2024-03-08T03:07:41;5.20;99.90
59307;DHT22;47983;53.016;-2.260;2024-03-08T03:10:18;5.10;99.90
59307;DHT22;47983;53.016;-2.260;2024-03-08T03:12:46;5.10;99.90
59307;DHT22;47983;53.016;-2.260;2024-03-08T03:15:16;5.20;99.90
59307;DHT22;47983;53.016;-2.260;2024-03-08T03:17:49;5.20;99.90
59307;DHT22;47983;53.016;-2.260;2024-03-08T03:20:19;5.20;99.90
59307;DHT22;47983;53.016;-2.260;2024-03-08T03:23:01;5.20;99.90
59307;DHT22;47983;53.016;-2.260;2024-03-08T03:25:33;5.20;99.90
59307;DHT22;47983;53.016;-2.260;2024-03-08T03:28:03;5.20;99.90
59307;DHT22;47983;53.016;-2.260;2024-03-08T03:30:32;5.20;99.90
59307;DHT22;47983;53.016;-2.260;2024-03-08T03:33:03;5.20;99.90
59307;DHT22;47983;53.016;-2.260;2024-03-08T03:35:38;5.20;99.90
59307;DHT22;47983;53.016;-2.260;2024-03-08T03:38:05;5.20;99.90
59307;DHT22;47983;53.016;-2.260;2024-03-08T03:40:39;5.20;99.90
59307;DHT22;47983;53.016;-2.260;2024-03-08T03:43:08;5.30;99.90
59307;DHT22;47983;53.016;-2.260;2024-03-08T03:45:39;5.30;99.90
59307;DHT22;47983;53.016;-2.260;2024-03-08T03:48:07;5.30;99.90
59307;DHT22;47983;53.016;-2.260;2024-03-08T03:50:41;5.30;99.90
59307;DHT22;47983;53.016;-2.260;2024-03-08T03:53:08;5.30;99.90
59307;DHT22;47983;53.016;-2.260;2024-03-08T03:55:38;5.30;99.90
59307;DHT22;47983;53.016;-2.260;2024-03-08T03:58:08;5.30;99.90
59307;DHT22;47983;53.016;-2.260;2024-03-08T04:00:38;5.30;99.90
59307;DHT22;47983;53.016;-2.260;2024-03-08T04:03:07;5.40;99.90
59307;DHT22;47983;53.016;-2.260;2024-03-08T04:05:36;5.30;99.90
59307;DHT22;47983;53.016;-2.260;2024-03-08T04:08:04;5.30;99.90
59307;DHT22;47983;53.016;-2.260;2024-03-08T04:10:32;5.40;99.90
59307;DHT22;47983;53.016;-2.260;2024-03-08T04:13:00;5.40;99.90
59307;DHT22;47983;53.016;-2.260;2024-03-08T04:15:27;5.40;99.90
59307;DHT22;47983;53.016;-2.260;2024-03-08T04:17:55;5.40;99.90
59307;DHT22;47983;53.016;-2.260;2024-03-08T04:20:25;5.40;99.90
59307;DHT22;47983;53.016;-2.260;2024-03-08T04:22:53;5.40;99.90
59307;DHT22;47983;53.016;-2.260;2024-03-08T04:25:22;5.40;99.90
59307;DHT22;47983;53.016;-2.260;2024-03-08T04:27:50;5.40;99.90
59307;DHT22;47983;53.016;-2.260;2024-03-08T04:30:20;5.40;99.90
59307;DHT22;47983;53.016;-2.260;2024-03-08T04:32:52;5.40;99.90
59307;DHT22;47983;53.016;-2.260;2024-03-08T04:35:20;5.30;99.90
59307;DHT22;47983;53.016;-2.260;2024-03-08T04:37:48;5.30;99.90
59307;DHT22;47983;53.016;-2.260;2024-03-08T04:40:16;5.30;99.90
59307;DHT22;47983;53.016;-2.260;2024-03-08T04:42:45;5.30;99.90
59307;DHT22;47983;53.016;-2.260;2024-03-08T04:45:13;5.30;99.90
59307;DHT22;47983;53.016;-2.260;2024-03-08T04:47:43;5.30;99.90
59307;DHT22;47983;53.016;-2.260;2024-03-08T04:50:12;5.20;99.90
59307;DHT22;47983;53.016;-2.260;2024-03-08T04:52:40;5.30;99.90
59307;DHT22;47983;53.016;-2.260;2024-03-08T04:55:08;5.20;99.90
59307;DHT22;47983;53.016;-2.260;2024-03-08T04:57:36;5.20;99.90
59307;DHT22;47983;53.016;-2.260;2024-03-08T05:00:04;5.20;99.90
59307;DHT22;47983;53.016;-2.260;2024-03-08T05:02:39;5.30;99.90
59307;DHT22;47983;53.016;-2.260;2024-03-08T05:05:07;5.20;99.90
59307;DHT22;47983;53.016;-2.260;2024-03-08T05:07:44;5.30;99.90
59307;DHT22;47983;53.016;-2.260;2024-03-08T05:10:13;5.30;99.90
59307;DHT22;47983;53.016;-2.260;2024-03-08T05:12:47;5.30;99.90
59307;DHT22;47983;53.016;-2.260;2024-03-08T05:15:15;5.30;99.90
59307;DHT22;47983;53.016;-2.260;2024-03-08T05:17:43;5.30;99.90
59307;DHT22;47983;53.016;-2.260;2024-03-08T05:20:12;5.30;99.90
59307;DHT22;47983;53.016;-2.260;2024-03-08T05:22:44;5.30;99.90
59307;DHT22;47983;53.016;-2.260;2024-03-08T05:25:13;5.30;99.90
59307;DHT22;47983;53.016;-2.260;2024-03-08T05:27:45;5.30;99.90
59307;DHT22;47983;53.016;-2.260;2024-03-08T05:30:18;5.30;99.90
59307;DHT22;47983;53.016;-2.260;2024-03-08T05:32:47;5.30;99.90
59307;DHT22;47983;53.016;-2.260;2024-03-08T05:35:15;5.40;99.90
59307;DHT22;47983;53.016;-2.260;2024-03-08T05:37:46;5.40;99.90
59307;DHT22;47983;53.016;-2.260;2024-03-08T05:40:15;5.40;99.90
59307;DHT22;47983;53.016;-2.260;2024-03-08T05:42:47;5.40;99.90
59307;DHT22;47983;53.016;-2.260;2024-03-08T05:45:15;5.40;99.90
59307;DHT22;47983;53.016;-2.260;2024-03-08T05:47:43;5.40;99.90
59307;DHT22;47983;53.016;-2.260;2024-03-08T05:50:16;5.30;99.90
59307;DHT22;47983;53.016;-2.260;2024-03-08T05:52:45;5.40;99.90
59307;DHT22;47983;53.016;-2.260;2024-03-08T05:55:15;5.40;99.90
59307;DHT22;47983;53.016;-2.260;2024-03-08T05:57:43;5.40;99.90
59307;DHT22;47983;53.016;-2.260;2024-03-08T06:00:15;5.40;99.90
59307;DHT22;47983;53.016;-2.260;2024-03-08T06:02:43;5.40;99.90
59307;DHT22;47983;53.016;-2.260;2024-03-08T06:05:15;5.40;99.90
59307;DHT22;47983;53.016;-2.260;2024-03-08T06:07:44;5.40;99.90
59307;DHT22;47983;53.016;-2.260;2024-03-08T06:10:12;5.40;99.90
59307;DHT22;47983;53.016;-2.260;2024-03-08T06:12:42;5.30;99.90
59307;DHT22;47983;53.016;-2.260;2024-03-08T06:15:13;5.30;99.90
59307;DHT22;47983;53.016;-2.260;2024-03-08T06:17:45;5.30;99.90
59307;DHT22;47983;53.016;-2.260;2024-03-08T06:20:13;5.30;99.90
59307;DHT22;47983;53.016;-2.260;2024-03-08T06:22:43;5.30;99.90
59307;DHT22;47983;53.016;-2.260;2024-03-08T06:25:12;5.30;99.90
59307;DHT22;47983;53.016;-2.260;2024-03-08T06:27:43;5.20;99.90
59307;DHT22;47983;53.016;-2.260;2024-03-08T06:30:11;5.20;99.90
59307;DHT22;47983;53.016;-2.260;2024-03-08T06:32:40;5.20;99.90
59307;DHT22;47983;53.016;-2.260;2024-03-08T06:35:11;5.20;99.90
59307;DHT22;47983;53.016;-2.260;2024-03-08T06:37:39;5.10;99.90
59307;DHT22;47983;53.016;-2.260;2024-03-08T06:40:07;5.20;99.90
59307;DHT22;47983;53.016;-2.260;2024-03-08T06:42:37;5.20;99.90
59307;DHT22;47983;53.016;-2.260;2024-03-08T06:45:05;5.10;99.90
59307;DHT22;47983;53.016;-2.260;2024-03-08T06:47:37;5.10;99.90
59307;DHT22;47983;53.016;-2.260;2024-03-08T06:50:05;5.10;99.90
59307;DHT22;47983;53.016;-2.260;2024-03-08T06:52:33;5.10;99.90
59307;DHT22;47983;53.016;-2.260;2024-03-08T06:55:02;5.10;99.90
59307;DHT22;47983;53.016;-2.260;2024-03-08T06:57:32;5.00;99.90
59307;DHT22;47983;53.016;-2.260;2024-03-08T07:00:00;4.90;99.90
59307;DHT22;47983;53.016;-2.260;2024-03-08T07:02:34;4.90;99.90
59307;DHT22;47983;53.016;-2.260;2024-03-08T07:05:03;4.80;99.90
59307;DHT22;47983;53.016;-2.260;2024-03-08T07:07:31;4.80;99.90
59307;DHT22;47983;53.016;-2.260;2024-03-08T07:10:01;4.80;99.90
59307;DHT22;47983;53.016;-2.260;2024-03-08T07:12:29;4.80;99.90
59307;DHT22;47983;53.016;-2.260;2024-03-08T07:14:56;4.80;99.90
59307;DHT22;47983;53.016;-2.260;2024-03-08T07:17:24;4.80;99.90
59307;DHT22;47983;53.016;-2.260;2024-03-08T07:19:53;4.80;99.90
59307;DHT22;47983;53.016;-2.260;2024-03-08T07:22:21;4.80;99.90
59307;DHT22;47983;53.016;-2.260;2024-03-08T07:24:51;4.80;99.90
59307;DHT22;47983;53.016;-2.260;2024-03-08T07:27:40;4.70;99.90
59307;DHT22;47983;53.016;-2.260;2024-03-08T07:30:08;4.80;99.90
59307;DHT22;47983;53.016;-2.260;2024-03-08T07:32:39;4.80;99.90
59307;DHT22;47983;53.016;-2.260;2024-03-08T07:35:06;4.80;99.90
59307;DHT22;47983;53.016;-2.260;2024-03-08T07:37:34;4.80;99.90
59307;DHT22;47983;53.016;-2.260;2024-03-08T07:40:04;4.80;99.90
59307;DHT22;47983;53.016;-2.260;2024-03-08T07:42:32;4.90;99.90
59307;DHT22;47983;53.016;-2.260;2024-03-08T07:45:00;5.00;99.90
59307;DHT22;47983;53.016;-2.260;2024-03-08T07:47:29;5.00;99.90
59307;DHT22;47983;53.016;-2.260;2024-03-08T07:50:00;5.00;99.90
59307;DHT22;47983;53.016;-2.260;2024-03-08T07:52:31;5.10;99.90
59307;DHT22;47983;53.016;-2.260;2024-03-08T07:54:59;5.10;99.90
59307;DHT22;47983;53.016;-2.260;2024-03-08T07:57:27;5.10;99.90
59307;DHT22;47983;53.016;-2.260;2024-03-08T07:59:55;5.10;99.90
59307;DHT22;47983;53.016;-2.260;2024-03-08T08:02:23;5.20;99.90
59307;DHT22;47983;53.016;-2.260;2024-03-08T08:04:51;5.30;99.90
59307;DHT22;47983;53.016;-2.260;2024-03-08T08:07:20;5.30;99.90
59307;DHT22;47983;53.016;-2.260;2024-03-08T08:09:52;5.30;99.90
59307;DHT22;47983;53.016;-2.260;2024-03-08T08:12:20;5.40;99.90
59307;DHT22;47983;53.016;-2.260;2024-03-08T08:14:49;5.50;99.90
59307;DHT22;47983;53.016;-2.260;2024-03-08T08:17:18;5.50;99.90
59307;DHT22;47983;53.016;-2.260;2024-03-08T08:19:46;5.60;99.90
59307;DHT22;47983;53.016;-2.260;2024-03-08T08:22:13;5.60;99.90
59307;DHT22;47983;53.016;-2.260;2024-03-08T08:24:42;5.60;99.90
59307;DHT22;47983;53.016;-2.260;2024-03-08T08:27:13;5.60;99.90
59307;DHT22;47983;53.016;-2.260;2024-03-08T08:29:43;5.70;99.90
59307;DHT22;47983;53.016;-2.260;2024-03-08T08:32:13;5.70;99.90
59307;DHT22;47983;53.016;-2.260;2024-03-08T08:34:41;5.70;99.90
59307;DHT22;47983;53.016;-2.260;2024-03-08T08:37:12;5.80;99.90
59307;DHT22;47983;53.016;-2.260;2024-03-08T08:39:42;5.80;99.90
59307;DHT22;47983;53.016;-2.260;2024-03-08T08:42:10;5.90;99.90
59307;DHT22;47983;53.016;-2.260;2024-03-08T08:44:39;6.00;99.90
59307;DHT22;47983;53.016;-2.260;2024-03-08T08:47:09;6.00;99.90
59307;DHT22;47983;53.016;-2.260;2024-03-08T08:49:44;6.10;99.90
59307;DHT22;47983;53.016;-2.260;2024-03-08T08:52:15;6.10;99.90
59307;DHT22;47983;53.016;-2.260;2024-03-08T08:54:45;6.10;99.90
59307;DHT22;47983;53.016;-2.260;2024-03-08T08:57:16;6.20;99.90
59307;DHT22;47983;53.016;-2.260;2024-03-08T08:59:44;6.20;99.90
59307;DHT22;47983;53.016;-2.260;2024-03-08T09:02:13;6.20;99.90
59307;DHT22;47983;53.016;-2.260;2024-03-08T09:04:46;6.20;99.90
59307;DHT22;47983;53.016;-2.260;2024-03-08T09:07:15;6.30;99.90
59307;DHT22;47983;53.016;-2.260;2024-03-08T09:09:45;6.20;99.90
59307;DHT22;47983;53.016;-2.260;2024-03-08T09:12:13;6.30;99.90
59307;DHT22;47983;53.016;-2.260;2024-03-08T09:14:45;6.30;99.90
59307;DHT22;47983;53.016;-2.260;2024-03-08T09:17:13;6.30;99.90
59307;DHT22;47983;53.016;-2.260;2024-03-08T09:19:45;6.40;99.90
59307;DHT22;47983;53.016;-2.260;2024-03-08T09:22:13;6.40;99.90
59307;DHT22;47983;53.016;-2.260;2024-03-08T09:24:43;6.50;99.90
59307;DHT22;47983;53.016;-2.260;2024-03-08T09:27:15;6.50;99.90
59307;DHT22;47983;53.016;-2.260;2024-03-08T09:29:43;6.60;99.90
59307;DHT22;47983;53.016;-2.260;2024-03-08T09:32:12;6.60;99.90
59307;DHT22;47983;53.016;-2.260;2024-03-08T09:34:43;6.70;99.90
59307;DHT22;47983;53.016;-2.260;2024-03-08T09:37:16;6.70;99.90
59307;DHT22;47983;53.016;-2.260;2024-03-08T09:39:45;6.80;99.90
59307;DHT22;47983;53.016;-2.260;2024-03-08T09:42:13;6.80;99.90
59307;DHT22;47983;53.016;-2.260;2024-03-08T09:44:44;6.80;99.90
59307;DHT22;47983;53.016;-2.260;2024-03-08T09:47:14;6.90;99.90
59307;DHT22;47983;53.016;-2.260;2024-03-08T09:49:44;6.90;99.90
59307;DHT22;47983;53.016;-2.260;2024-03-08T09:52:15;6.90;99.90
59307;DHT22;47983;53.016;-2.260;2024-03-08T09:54:47;6.90;99.90
59307;DHT22;47983;53.016;-2.260;2024-03-08T09:57:16;6.90;99.90
59307;DHT22;47983;53.016;-2.260;2024-03-08T09:59:47;6.80;99.90
59307;DHT22;47983;53.016;-2.260;2024-03-08T10:02:15;6.80;99.90
59307;DHT22;47983;53.016;-2.260;2024-03-08T10:04:45;6.80;99.90
59307;DHT22;47983;53.016;-2.260;2024-03-08T10:07:15;6.70;99.90
59307;DHT22;47983;53.016;-2.260;2024-03-08T10:09:43;6.70;99.90
59307;DHT22;47983;53.016;-2.260;2024-03-08T10:12:21;6.70;99.90
59307;DHT22;47983;53.016;-2.260;2024-03-08T10:14:50;6.70;99.90
59307;DHT22;47983;53.016;-2.260;2024-03-08T10:17:19;6.70;99.90
59307;DHT22;47983;53.016;-2.260;2024-03-08T10:19:51;6.80;99.90
59307;DHT22;47983;53.016;-2.260;2024-03-08T10:22:22;6.90;99.90
59307;DHT22;47983;53.016;-2.260;2024-03-08T10:24:50;6.90;99.90
59307;DHT22;47983;53.016;-2.260;2024-03-08T10:27:18;7.00;99.90
59307;DHT22;47983;53.016;-2.260;2024-03-08T10:29:47;7.10;99.90
59307;DHT22;47983;53.016;-2.260;2024-03-08T10:32:15;7.10;99.90
59307;DHT22;47983;53.016;-2.260;2024-03-08T10:34:45;7.20;99.90
59307;DHT22;47983;53.016;-2.260;2024-03-08T10:37:15;7.20;99.90
59307;DHT22;47983;53.016;-2.260;2024-03-08T10:40:25;7.20;99.90
59307;DHT22;47983;53.016;-2.260;2024-03-08T10:42:51;7.30;99.90
59307;DHT22;47983;53.016;-2.260;2024-03-08T10:45:23;7.30;99.90
59307;DHT22;47983;53.016;-2.260;2024-03-08T10:47:57;7.40;99.90
59307;DHT22;47983;53.016;-2.260;2024-03-08T10:50:31;7.40;99.90
59307;DHT22;47983;53.016;-2.260;2024-03-08T10:53:02;7.50;99.90
59307;DHT22;47983;53.016;-2.260;2024-03-08T10:55:31;7.60;99.90
59307;DHT22;47983;53.016;-2.260;2024-03-08T10:58:01;7.70;99.90
59307;DHT22;47983;53.016;-2.260;2024-03-08T11:00:29;7.70;99.90
59307;DHT22;47983;53.016;-2.260;2024-03-08T11:02:59;7.70;99.90
59307;DHT22;47983;53.016;-2.260;2024-03-08T11:05:37;7.80;99.90
59307;DHT22;47983;53.016;-2.260;2024-03-08T11:08:17;7.80;99.90
59307;DHT22;47983;53.016;-2.260;2024-03-08T11:10:52;7.80;99.90
59307;DHT22;47983;53.016;-2.260;2024-03-08T11:13:36;7.70;99.90
59307;DHT22;47983;53.016;-2.260;2024-03-08T11:16:12;7.70;99.90
59307;DHT22;47983;53.016;-2.260;2024-03-08T11:18:43;7.70;99.90
59307;DHT22;47983;53.016;-2.260;2024-03-08T11:21:13;7.70;99.90
59307;DHT22;47983;53.016;-2.260;2024-03-08T11:23:43;7.70;99.90
59307;DHT22;47983;53.016;-2.260;2024-03-08T11:26:19;7.70;99.90
59307;DHT22;47983;53.016;-2.260;2024-03-08T11:28:48;7.70;99.90
59307;DHT22;47983;53.016;-2.260;2024-03-08T11:33:49;7.70;99.90
59307;DHT22;47983;53.016;-2.260;2024-03-08T11:36:20;7.60;99.90
59307;DHT22;47983;53.016;-2.260;2024-03-08T11:38:53;7.70;99.90
59307;DHT22;47983;53.016;-2.260;2024-03-08T11:41:23;7.80;99.90
59307;DHT22;47983;53.016;-2.260;2024-03-08T11:44:04;7.80;99.90
59307;DHT22;47983;53.016;-2.260;2024-03-08T11:46:36;7.90;99.90
59307;DHT22;47983;53.016;-2.260;2024-03-08T11:49:05;7.90;99.90
59307;DHT22;47983;53.016;-2.260;2024-03-08T11:51:34;7.90;99.90
59307;DHT22;47983;53.016;-2.260;2024-03-08T11:54:02;8.00;99.90
59307;DHT22;47983;53.016;-2.260;2024-03-08T11:56:32;8.00;99.90
59307;DHT22;47983;53.016;-2.260;2024-03-08T11:59:05;8.00;99.90
59307;DHT22;47983;53.016;-2.260;2024-03-08T12:01:42;8.00;99.90
59307;DHT22;47983;53.016;-2.260;2024-03-08T12:04:12;8.10;99.90
59307;DHT22;47983;53.016;-2.260;2024-03-08T12:06:42;8.10;99.90
59307;DHT22;47983;53.016;-2.260;2024-03-08T12:09:15;8.20;99.90
59307;DHT22;47983;53.016;-2.260;2024-03-08T12:11:44;8.20;99.90
59307;DHT22;47983;53.016;-2.260;2024-03-08T12:14:15;8.20;99.90
59307;DHT22;47983;53.016;-2.260;2024-03-08T12:16:44;8.20;99.90
59307;DHT22;47983;53.016;-2.260;2024-03-08T12:19:16;8.20;99.90
59307;DHT22;47983;53.016;-2.260;2024-03-08T12:21:45;8.20;99.90
59307;DHT22;47983;53.016;-2.260;2024-03-08T12:24:19;8.20;99.90
59307;DHT22;47983;53.016;-2.260;2024-03-08T12:26:47;8.30;99.90
59307;DHT22;47983;53.016;-2.260;2024-03-08T12:29:19;8.20;99.90
59307;DHT22;47983;53.016;-2.260;2024-03-08T12:31:51;8.20;99.90
59307;DHT22;47983;53.016;-2.260;2024-03-08T12:34:20;8.20;99.90
59307;DHT22;47983;53.016;-2.260;2024-03-08T12:36:50;8.30;99.90
59307;DHT22;47983;53.016;-2.260;2024-03-08T12:39:21;8.30;99.90
59307;DHT22;47983;53.016;-2.260;2024-03-08T12:42:13;8.30;99.90
59307;DHT22;47983;53.016;-2.260;2024-03-08T12:44:45;8.30;99.90
59307;DHT22;47983;53.016;-2.260;2024-03-08T12:47:13;8.30;99.90
59307;DHT22;47983;53.016;-2.260;2024-03-08T12:49:42;8.30;99.90
59307;DHT22;47983;53.016;-2.260;2024-03-08T12:52:13;8.30;99.90
59307;DHT22;47983;53.016;-2.260;2024-03-08T12:54:41;8.30;99.90
59307;DHT22;47983;53.016;-2.260;2024-03-08T12:57:12;8.40;99.90
59307;DHT22;47983;53.016;-2.260;2024-03-08T12:59:41;8.40;99.90
59307;DHT22;47983;53.016;-2.260;2024-03-08T13:02:13;8.40;99.90
59307;DHT22;47983;53.016;-2.260;2024-03-08T13:04:42;8.40;99.90
59307;DHT22;47983;53.016;-2.260;2024-03-08T13:07:12;8.40;99.90
59307;DHT22;47983;53.016;-2.260;2024-03-08T13:09:47;8.50;99.90
59307;DHT22;47983;53.016;-2.260;2024-03-08T13:12:15;8.50;99.90
59307;DHT22;47983;53.016;-2.260;2024-03-08T13:14:42;8.50;99.90
59307;DHT22;47983;53.016;-2.260;2024-03-08T13:17:13;8.60;99.90
59307;DHT22;47983;53.016;-2.260;2024-03-08T13:19:44;8.60;99.90
59307;DHT22;47983;53.016;-2.260;2024-03-08T13:22:13;8.60;99.90
59307;DHT22;47983;53.016;-2.260;2024-03-08T13:24:47;8.80;99.90
59307;DHT22;47983;53.016;-2.260;2024-03-08T13:27:22;9.00;99.90
59307;DHT22;47983;53.016;-2.260;2024-03-08T13:29:54;9.10;99.90
59307;DHT22;47983;53.016;-2.260;2024-03-08T13:32:26;9.20;99.90
59307;DHT22;47983;53.016;-2.260;2024-03-08T13:34:56;9.30;99.90
59307;DHT22;47983;53.016;-2.260;2024-03-08T13:37:24;9.20;99.90
59307;DHT22;47983;53.016;-2.260;2024-03-08T13:39:53;9.30;99.90
59307;DHT22;47983;53.016;-2.260;2024-03-08T13:42:22;9.50;99.90
59307;DHT22;47983;53.016;-2.260;2024-03-08T13:44:50;10.10;99.90
59307;DHT22;47983;53.016;-2.260;2024-03-08T13:47:17;10.50;99.90
59307;DHT22;47983;53.016;-2.260;2024-03-08T13:49:45;10.60;99.90
59307;DHT22;47983;53.016;-2.260;2024-03-08T13:52:18;10.40;99.90
59307;DHT22;47983;53.016;-2.260;2024-03-08T13:54:47;10.10;99.90
59307;DHT22;47983;53.016;-2.260;2024-03-08T13:57:18;9.80;99.90
59307;DHT22;47983;53.016;-2.260;2024-03-08T13:59:46;9.60;99.90
59307;DHT22;47983;53.016;-2.260;2024-03-08T14:02:17;9.30;99.90
59307;DHT22;47983;53.016;-2.260;2024-03-08T14:04:45;9.10;99.90
59307;DHT22;47983;53.016;-2.260;2024-03-08T14:07:14;9.10;99.90
59307;DHT22;47983;53.016;-2.260;2024-03-08T14:09:44;8.90;99.90
59307;DHT22;47983;53.016;-2.260;2024-03-08T14:12:15;8.80;99.90
59307;DHT22;47983;53.016;-2.260;2024-03-08T14:14:43;8.70;99.90
59307;DHT22;47983;53.016;-2.260;2024-03-08T14:17:12;8.60;99.90
59307;DHT22;47983;53.016;-2.260;2024-03-08T14:19:46;8.50;99.90
59307;DHT22;47983;53.016;-2.260;2024-03-08T14:22:13;8.50;99.90
59307;DHT22;47983;53.016;-2.260;2024-03-08T14:24:42;8.40;99.90
59307;DHT22;47983;53.016;-2.260;2024-03-08T14:27:13;8.40;99.90
59307;DHT22;47983;53.016;-2.260;2024-03-08T14:29:42;8.40;99.90
59307;DHT22;47983;53.016;-2.260;2024-03-08T14:32:13;8.50;99.90
59307;DHT22;47983;53.016;-2.260;2024-03-08T14:34:45;8.50;99.90
59307;DHT22;47983;53.016;-2.260;2024-03-08T14:37:13;8.60;99.90
59307;DHT22;47983;53.016;-2.260;2024-03-08T14:39:47;8.60;99.90
59307;DHT22;47983;53.016;-2.260;2024-03-08T14:42:15;8.70;99.90
59307;DHT22;47983;53.016;-2.260;2024-03-08T14:44:43;8.60;99.90
59307;DHT22;47983;53.016;-2.260;2024-03-08T14:47:15;8.60;99.90
59307;DHT22;47983;53.016;-2.260;2024-03-08T14:49:45;8.60;99.90
59307;DHT22;47983;53.016;-2.260;2024-03-08T14:52:12;8.60;99.90
59307;DHT22;47983;53.016;-2.260;2024-03-08T14:54:56;8.60;99.90
59307;DHT22;47983;53.016;-2.260;2024-03-08T14:57:24;8.60;99.90
59307;DHT22;47983;53.016;-2.260;2024-03-08T14:59:51;8.60;99.90
59307;DHT22;47983;53.016;-2.260;2024-03-08T15:02:19;8.70;99.90
59307;DHT22;47983;53.016;-2.260;2024-03-08T15:04:47;8.70;99.90
59307;DHT22;47983;53.016;-2.260;2024-03-08T15:07:25;8.80;99.90
59307;DHT22;47983;53.016;-2.260;2024-03-08T15:09:54;8.80;99.90
59307;DHT22;47983;53.016;-2.260;2024-03-08T15:12:25;8.80;99.90
59307;DHT22;47983;53.016;-2.260;2024-03-08T15:14:57;8.80;99.90
59307;DHT22;47983;53.016;-2.260;2024-03-08T15:17:28;8.80;99.90
59307;DHT22;47983;53.016;-2.260;2024-03-08T15:19:56;8.80;99.90
59307;DHT22;47983;53.016;-2.260;2024-03-08T15:22:25;8.70;99.90
59307;DHT22;47983;53.016;-2.260;2024-03-08T15:24:53;8.70;99.90
59307;DHT22;47983;53.016;-2.260;2024-03-08T15:27:23;8.60;99.90
59307;DHT22;47983;53.016;-2.260;2024-03-08T15:29:52;8.60;99.90
59307;DHT22;47983;53.016;-2.260;2024-03-08T15:32:26;8.60;99.90
59307;DHT22;47983;53.016;-2.260;2024-03-08T15:34:55;8.50;99.90
59307;DHT22;47983;53.016;-2.260;2024-03-08T15:37:24;8.50;99.90
59307;DHT22;47983;53.016;-2.260;2024-03-08T15:39:53;8.50;99.90
59307;DHT22;47983;53.016;-2.260;2024-03-08T15:42:21;8.40;99.90
59307;DHT22;47983;53.016;-2.260;2024-03-08T15:44:53;8.40;99.90
59307;DHT22;47983;53.016;-2.260;2024-03-08T15:47:23;8.40;99.90
59307;DHT22;47983;53.016;-2.260;2024-03-08T15:49:53;8.40;99.90